KONL/ONL METAR and TAF weather

Enter ICAO airport designator
Station Type Date Time Source
KONL METAR 2021/03/06 01:15 UTC NOAA

KONL 060115Z AUTO 13004KT 10SM CLR 12/02 A3022 RMK AO2 T01160016


Station Type Date Time Source
KONL Decoded METAR 2021/03/06 01:15 UTC NOAA

O'Neill / Baker Field, NE, United States (KONL) 42-28N 098-41W
Mar 05, 2021 - 08:15 PM EST / 2021.03.06 0115 UTC
Wind: from the SE (130 degrees) at 5 MPH (4 KT):0
Visibility: 10 mile(s):0
Sky conditions: clear
Temperature: 52.9 F (11.6 C)
Dew Point: 34.9 F (1.6 C)
Relative Humidity: 50%
Pressure (altimeter): 30.22 in. Hg (1023 hPa)
ob: KONL 060115Z AUTO 13004KT 10SM CLR 12/02 A3022 RMK AO2 T01160016
cycle: 1

Station Type Date Time Source
KONL TAF UTC NOAA

Error!

Example: see airport list